Unicom:                    122.8

AWOS:                  118.275

Elevation           1458’ MSL

TPA:                   2500’ MSL

06/24:         5003’ L   75’ W

PAPI:       06/Left     24/Left

(Operate lights on unicom freq.)

Traffic Pattern: Left

Beacon: Sunset to Sunrise

Windsock: yes, lighted

Segmented Circle: No

 

Cleveland Center: 126.72/291.65

FSS: Altoona

[Source: ADDS]
METAR
KFKL 281010Z AUTO 30006KT 9SM BKN028 M09/M11 A3024 RMK AO2 SNE06 P0000 FZRANO =
KFKL 280520Z 2806/2906 33009KT 6SM -SN BKN022 FM280800 33009KT 6SM -SN BKN015 FM281000 33009G18KT P6SM BKN015
TAF
KFKL 280520Z 2806/2906 33009KT 6SM -SN BKN022 FM280800 33009KT 6SM -SN BKN015 FM281000 33009G18KT P6SM BKN015 =
[Source: ADDS]
METAR
KDUJ 280953Z AUTO 33010G18KT 10SM BKN019 M08/M13 A3015 RMK AO2 SNE16 SLP235 P0000 T10831128 =
KDUJ 280520Z 2806/2906 33008KT P6SM BKN022 FM280700 33009G18KT P6SM OVC015 FM282200 31012G20KT P6SM SCT025
TAF
KDUJ 280520Z 2806/2906 33008KT P6SM BKN022 FM280700 33009G18KT P6SM OVC015 FM282200 31012G20KT P6SM SCT025 =

Airport Information. 

Runway Length: 5003ft x 75ft

Runways 6/24

Traffic Pattern: Left

PAPI’s: 2 light PAPI on left of both 6/24

TPA: 2500 msl

Field Elevation: 1458 msl

Surface: Asphalt

Beacon: Operates Sunset-Sunrise

Pilot Controlled Lighting:  yes 122.8

 

Fuel:

Jet-A w/prist

100 LL

Center point fueling available upon request.

 

Unicom Frequency: 122.8

AWOS Frequency: 118.27  (814-227-2899)

 

Cleveland Center: 126.72 (440-774-0442)

 

GPS Approach Plates for 6/24 download here: http://www.airnav.com/airport/KAXQ

[Source: ADDS]
METAR
KFKL 281010Z AUTO 30006KT 9SM BKN028 M09/M11 A3024 RMK AO2 SNE06 P0000 FZRANO =
KFKL 280520Z 2806/2906 33009KT 6SM -SN BKN022 FM280800 33009KT 6SM -SN BKN015 FM281000 33009G18KT P6SM BKN015
TAF
KFKL 280520Z 2806/2906 33009KT 6SM -SN BKN022 FM280800 33009KT 6SM -SN BKN015 FM281000 33009G18KT P6SM BKN015 =
[Source: ADDS]
METAR
KDUJ 280953Z AUTO 33010G18KT 10SM BKN019 M08/M13 A3015 RMK AO2 SNE16 SLP235 P0000 T10831128 =
KDUJ 280520Z 2806/2906 33008KT P6SM BKN022 FM280700 33009G18KT P6SM OVC015 FM282200 31012G20KT P6SM SCT025
TAF
KDUJ 280520Z 2806/2906 33008KT P6SM BKN022 FM280700 33009G18KT P6SM OVC015 FM282200 31012G20KT P6SM SCT025 =